Time;durP1;ratioP1;P1;durP2;ratioP2;P2;SDS_P1;SDS_P2;PMS_P1;PMS_P2;Temp;Humidity;BMP_temperature;BMP_pressure;BME280_temperature;BME280_humidity;BME280_pressure;Samples;Min_cycle;Max_cycle;Signal;HPM_P1;HPM_P2
2021/12/12 00:00:14;;;;;;;;;;;1.0;77.2;;;;;;;;;
2021/12/12 00:05:09;;;;;;;;;;;1.0;78.0;;;;;;;;;
2021/12/12 00:10:10;;;;;;;;;;;1.0;77.7;;;;;;;;;
2021/12/12 00:15:08;;;;;;;;;;;1.1;77.9;;;;;;;;;
2021/12/12 00:20:08;;;;;;;;;;;1.1;78.1;;;;;;;;;
2021/12/12 00:25:08;;;;;;;;;;;1.1;78.3;;;;;;;;;
2021/12/12 00:30:09;;;;;;;;;;;1.1;78.5;;;;;;;;;
2021/12/12 00:40:11;;;;;;;;;;;1.1;78.8;;;;;;;;;
2021/12/12 00:45:09;;;;;;;;;;;1.1;79.7;;;;;;;;;
2021/12/12 00:55:07;;;;;;;;;;;1.1;80.4;;;;;;;;;
2021/12/12 01:00:09;;;;;;;;;;;1.1;80.8;;;;;;;;;
2021/12/12 01:05:09;;;;;;;;;;;1.1;80.9;;;;;;;;;
2021/12/12 01:10:09;;;;;;;;;;;1.1;81.4;;;;;;;;;
2021/12/12 01:15:10;;;;;;;;;;;1.2;80.9;;;;;;;;;
2021/12/12 01:20:11;;;;;;;;;;;1.2;80.7;;;;;;;;;
2021/12/12 01:25:11;;;;;;;;;;;1.3;80.7;;;;;;;;;
2021/12/12 01:30:09;;;;;;;;;;;1.2;80.6;;;;;;;;;
2021/12/12 01:35:15;;;;;;;;;;;1.3;80.9;;;;;;;;;
2021/12/12 01:45:09;;;;;;;;;;;1.3;80.5;;;;;;;;;
2021/12/12 01:50:11;;;;;;;;;;;1.3;80.6;;;;;;;;;
2021/12/12 01:55:11;;;;;;;;;;;1.3;80.5;;;;;;;;;
2021/12/12 02:00:10;;;;;;;;;;;1.3;81.0;;;;;;;;;
2021/12/12 02:05:10;;;;;;;;;;;1.3;80.7;;;;;;;;;
2021/12/12 02:10:09;;;;;;;;;;;1.3;80.5;;;;;;;;;
2021/12/12 02:15:09;;;;;;;;;;;1.4;80.9;;;;;;;;;
2021/12/12 02:20:15;;;;;;;;;;;1.4;80.5;;;;;;;;;
2021/12/12 02:35:15;;;;;;;;;;;1.4;80.2;;;;;;;;;
2021/12/12 02:40:10;;;;;;;;;;;1.4;80.8;;;;;;;;;
2021/12/12 02:45:08;;;;;;;;;;;1.4;80.6;;;;;;;;;
2021/12/12 02:50:11;;;;;;;;;;;1.5;80.2;;;;;;;;;
2021/12/12 02:55:09;;;;;;;;;;;1.5;80.0;;;;;;;;;
2021/12/12 03:00:09;;;;;;;;;;;1.5;80.3;;;;;;;;;
2021/12/12 03:05:08;;;;;;;;;;;1.4;80.4;;;;;;;;;
2021/12/12 03:10:09;;;;;;;;;;;1.5;79.9;;;;;;;;;
2021/12/12 03:15:09;;;;;;;;;;;1.5;79.9;;;;;;;;;
2021/12/12 03:20:13;;;;;;;;;;;1.5;79.5;;;;;;;;;
2021/12/12 03:25:07;;;;;;;;;;;1.5;80.0;;;;;;;;;
2021/12/12 03:35:07;;;;;;;;;;;1.5;79.9;;;;;;;;;
2021/12/12 03:45:08;;;;;;;;;;;1.5;79.5;;;;;;;;;
2021/12/12 03:50:09;;;;;;;;;;;1.6;79.4;;;;;;;;;
2021/12/12 03:55:08;;;;;;;;;;;1.6;79.0;;;;;;;;;
2021/12/12 04:10:10;;;;;;;;;;;1.6;78.5;;;;;;;;;
2021/12/12 04:15:07;;;;;;;;;;;1.6;78.3;;;;;;;;;
2021/12/12 04:20:09;;;;;;;;;;;1.6;78.7;;;;;;;;;
2021/12/12 04:25:08;;;;;;;;;;;1.6;78.6;;;;;;;;;
2021/12/12 04:30:08;;;;;;;;;;;1.6;78.7;;;;;;;;;
2021/12/12 04:40:10;;;;;;;;;;;1.6;78.9;;;;;;;;;
2021/12/12 04:45:11;;;;;;;;;;;1.7;78.7;;;;;;;;;
2021/12/12 04:50:13;;;;;;;;;;;1.7;78.8;;;;;;;;;
2021/12/12 04:55:09;;;;;;;;;;;1.6;78.8;;;;;;;;;
2021/12/12 05:00:09;;;;;;;;;;;1.6;79.2;;;;;;;;;
2021/12/12 05:05:10;;;;;;;;;;;1.5;79.1;;;;;;;;;
2021/12/12 05:10:10;;;;;;;;;;;1.6;78.9;;;;;;;;;
2021/12/12 05:15:11;;;;;;;;;;;1.5;78.7;;;;;;;;;
2021/12/12 05:20:09;;;;;;;;;;;1.6;78.6;;;;;;;;;
2021/12/12 05:25:09;;;;;;;;;;;1.6;78.2;;;;;;;;;
2021/12/12 05:30:10;;;;;;;;;;;1.6;78.1;;;;;;;;;
2021/12/12 05:35:09;;;;;;;;;;;1.6;78.3;;;;;;;;;
2021/12/12 05:40:09;;;;;;;;;;;1.6;77.7;;;;;;;;;
2021/12/12 05:45:08;;;;;;;;;;;1.6;77.5;;;;;;;;;
2021/12/12 05:50:09;;;;;;;;;;;1.7;77.3;;;;;;;;;
2021/12/12 05:55:08;;;;;;;;;;;1.7;77.1;;;;;;;;;
2021/12/12 06:05:08;;;;;;;;;;;1.7;76.4;;;;;;;;;
2021/12/12 06:15:08;;;;;;;;;;;1.6;76.0;;;;;;;;;
2021/12/12 06:20:09;;;;;;;;;;;1.7;75.6;;;;;;;;;
2021/12/12 06:25:08;;;;;;;;;;;1.8;76.5;;;;;;;;;
2021/12/12 06:30:09;;;;;;;;;;;1.7;74.9;;;;;;;;;
2021/12/12 06:35:08;;;;;;;;;;;1.8;75.0;;;;;;;;;
2021/12/12 06:40:08;;;;;;;;;;;1.8;74.1;;;;;;;;;
2021/12/12 06:45:08;;;;;;;;;;;1.8;73.7;;;;;;;;;
2021/12/12 06:55:09;;;;;;;;;;;1.8;73.9;;;;;;;;;
2021/12/12 07:00:09;;;;;;;;;;;1.8;72.9;;;;;;;;;
2021/12/12 07:05:07;;;;;;;;;;;1.8;72.4;;;;;;;;;
2021/12/12 07:10:08;;;;;;;;;;;1.9;71.7;;;;;;;;;
2021/12/12 07:15:08;;;;;;;;;;;1.9;71.2;;;;;;;;;
2021/12/12 07:20:10;;;;;;;;;;;1.9;71.5;;;;;;;;;
2021/12/12 07:25:08;;;;;;;;;;;1.9;71.4;;;;;;;;;
2021/12/12 07:30:08;;;;;;;;;;;1.9;71.5;;;;;;;;;
2021/12/12 07:35:08;;;;;;;;;;;1.9;71.8;;;;;;;;;
2021/12/12 07:40:09;;;;;;;;;;;1.9;71.9;;;;;;;;;
2021/12/12 07:45:09;;;;;;;;;;;1.8;72.4;;;;;;;;;
2021/12/12 07:50:08;;;;;;;;;;;1.8;71.9;;;;;;;;;
2021/12/12 07:55:07;;;;;;;;;;;1.9;71.7;;;;;;;;;
2021/12/12 08:00:09;;;;;;;;;;;1.9;71.5;;;;;;;;;
2021/12/12 08:05:08;;;;;;;;;;;1.9;71.6;;;;;;;;;
2021/12/12 08:10:09;;;;;;;;;;;1.8;72.0;;;;;;;;;
2021/12/12 08:15:08;;;;;;;;;;;1.9;72.6;;;;;;;;;
2021/12/12 08:20:08;;;;;;;;;;;1.9;71.6;;;;;;;;;
2021/12/12 08:25:09;;;;;;;;;;;2.0;71.3;;;;;;;;;
2021/12/12 08:35:08;;;;;;;;;;;2.2;70.9;;;;;;;;;
2021/12/12 08:40:09;;;;;;;;;;;2.7;69.1;;;;;;;;;
2021/12/12 08:45:09;;;;;;;;;;;3.2;67.8;;;;;;;;;
2021/12/12 08:50:09;;;;;;;;;;;3.6;65.4;;;;;;;;;
2021/12/12 08:55:14;;;;;;;;;;;4.1;63.6;;;;;;;;;
2021/12/12 09:00:09;;;;;;;;;;;4.6;61.9;;;;;;;;;
2021/12/12 09:05:09;;;;;;;;;;;5.5;58.8;;;;;;;;;
2021/12/12 09:10:09;;;;;;;;;;;6.9;56.2;;;;;;;;;
2021/12/12 09:15:11;;;;;;;;;;;8.6;49.7;;;;;;;;;
2021/12/12 09:20:13;;;;;;;;;;;9.3;47.5;;;;;;;;;
2021/12/12 09:25:14;;;;;;;;;;;9.8;45.5;;;;;;;;;
2021/12/12 09:30:09;;;;;;;;;;;10.0;46.0;;;;;;;;;
2021/12/12 09:35:09;;;;;;;;;;;9.9;45.5;;;;;;;;;
2021/12/12 09:40:12;;;;;;;;;;;9.8;46.1;;;;;;;;;
2021/12/12 09:45:16;;;;;;;;;;;9.6;46.3;;;;;;;;;
2021/12/12 09:55:10;;;;;;;;;;;9.0;47.5;;;;;;;;;
2021/12/12 10:00:12;;;;;;;;;;;8.8;48.1;;;;;;;;;
2021/12/12 10:05:13;;;;;;;;;;;8.4;48.6;;;;;;;;;
2021/12/12 10:10:09;;;;;;;;;;;8.9;48.2;;;;;;;;;
2021/12/12 10:15:09;;;;;;;;;;;10.5;45.3;;;;;;;;;
2021/12/12 10:20:09;;;;;;;;;;;12.7;40.5;;;;;;;;;
2021/12/12 10:25:09;;;;;;;;;;;12.9;38.8;;;;;;;;;
2021/12/12 10:30:11;;;;;;;;;;;13.1;38.3;;;;;;;;;
2021/12/12 10:35:10;;;;;;;;;;;12.5;39.3;;;;;;;;;
2021/12/12 10:40:09;;;;;;;;;;;13.2;38.0;;;;;;;;;
2021/12/12 10:45:09;;;;;;;;;;;13.5;37.0;;;;;;;;;
2021/12/12 10:50:11;;;;;;;;;;;13.2;37.2;;;;;;;;;
2021/12/12 10:55:09;;;;;;;;;;;12.9;38.1;;;;;;;;;
2021/12/12 11:00:09;;;;;;;;;;;13.3;37.1;;;;;;;;;
2021/12/12 11:05:09;;;;;;;;;;;13.6;36.8;;;;;;;;;
2021/12/12 11:10:09;;;;;;;;;;;13.3;37.2;;;;;;;;;
2021/12/12 11:15:10;;;;;;;;;;;13.1;37.3;;;;;;;;;
2021/12/12 11:20:13;;;;;;;;;;;14.0;36.3;;;;;;;;;
2021/12/12 11:25:09;;;;;;;;;;;13.5;36.3;;;;;;;;;
2021/12/12 11:30:10;;;;;;;;;;;13.0;37.1;;;;;;;;;
2021/12/12 11:35:10;;;;;;;;;;;12.4;38.5;;;;;;;;;
2021/12/12 11:40:13;;;;;;;;;;;11.1;40.4;;;;;;;;;
2021/12/12 11:45:20;;;;;;;;;;;9.8;44.0;;;;;;;;;
2021/12/12 11:50:10;;;;;;;;;;;9.4;45.7;;;;;;;;;
2021/12/12 11:55:09;;;;;;;;;;;9.2;46.5;;;;;;;;;
2021/12/12 12:00:11;;;;;;;;;;;8.8;47.2;;;;;;;;;
2021/12/12 12:05:14;;;;;;;;;;;8.4;48.1;;;;;;;;;
2021/12/12 12:10:09;;;;;;;;;;;7.7;49.7;;;;;;;;;
2021/12/12 12:15:11;;;;;;;;;;;7.6;49.7;;;;;;;;;
2021/12/12 12:20:09;;;;;;;;;;;7.4;49.7;;;;;;;;;
2021/12/12 12:25:18;;;;;;;;;;;7.4;49.3;;;;;;;;;
2021/12/12 12:30:49;;;;;;;;;;;7.2;50.7;;;;;;;;;
2021/12/12 12:35:59;;;;;;;;;;;7.5;49.8;;;;;;;;;
2021/12/12 12:41:07;;;;;;;;;;;7.2;49.6;;;;;;;;;
2021/12/12 12:45:37;;;;;;;;;;;7.0;50.8;;;;;;;;;
2021/12/12 12:50:36;;;;;;;;;;;6.9;51.4;;;;;;;;;
2021/12/12 12:55:27;;;;;;;;;;;7.0;50.4;;;;;;;;;
2021/12/12 13:00:10;;;;;;;;;;;7.0;51.4;;;;;;;;;
2021/12/12 13:05:34;;;;;;;;;;;6.7;52.3;;;;;;;;;
2021/12/12 13:10:09;;;;;;;;;;;6.5;52.4;;;;;;;;;
2021/12/12 13:15:12;;;;;;;;;;;6.4;53.2;;;;;;;;;
2021/12/12 13:20:16;;;;;;;;;;;6.4;53.0;;;;;;;;;
2021/12/12 13:25:13;;;;;;;;;;;6.5;52.8;;;;;;;;;
2021/12/12 13:30:09;;;;;;;;;;;6.3;52.9;;;;;;;;;
2021/12/12 13:35:11;;;;;;;;;;;6.4;53.2;;;;;;;;;
2021/12/12 13:40:15;;;;;;;;;;;6.3;52.5;;;;;;;;;
2021/12/12 13:45:17;;;;;;;;;;;6.4;52.3;;;;;;;;;
2021/12/12 13:50:12;;;;;;;;;;;6.4;51.7;;;;;;;;;
2021/12/12 13:55:10;;;;;;;;;;;6.1;53.1;;;;;;;;;
2021/12/12 14:00:17;;;;;;;;;;;6.1;53.0;;;;;;;;;
2021/12/12 14:05:11;;;;;;;;;;;6.2;52.1;;;;;;;;;
2021/12/12 14:10:11;;;;;;;;;;;6.0;52.5;;;;;;;;;
2021/12/12 14:15:11;;;;;;;;;;;6.1;52.9;;;;;;;;;
2021/12/12 14:20:09;;;;;;;;;;;5.9;52.3;;;;;;;;;
2021/12/12 14:25:08;;;;;;;;;;;5.7;52.5;;;;;;;;;
2021/12/12 14:30:09;;;;;;;;;;;5.8;52.4;;;;;;;;;
2021/12/12 14:35:13;;;;;;;;;;;5.7;54.1;;;;;;;;;
2021/12/12 14:40:09;;;;;;;;;;;5.8;54.5;;;;;;;;;
2021/12/12 14:45:09;;;;;;;;;;;5.8;54.6;;;;;;;;;
2021/12/12 14:50:09;;;;;;;;;;;5.6;55.0;;;;;;;;;
2021/12/12 14:55:11;;;;;;;;;;;5.6;54.3;;;;;;;;;
2021/12/12 15:00:10;;;;;;;;;;;5.5;53.6;;;;;;;;;
2021/12/12 15:05:09;;;;;;;;;;;5.5;54.2;;;;;;;;;
2021/12/12 15:10:10;;;;;;;;;;;5.4;54.5;;;;;;;;;
2021/12/12 15:15:11;;;;;;;;;;;5.3;55.1;;;;;;;;;
2021/12/12 15:20:09;;;;;;;;;;;5.3;55.4;;;;;;;;;
2021/12/12 15:25:09;;;;;;;;;;;5.2;55.2;;;;;;;;;
2021/12/12 15:30:09;;;;;;;;;;;5.2;55.6;;;;;;;;;
2021/12/12 15:35:09;;;;;;;;;;;5.2;55.7;;;;;;;;;
2021/12/12 15:40:10;;;;;;;;;;;5.3;55.8;;;;;;;;;
2021/12/12 15:45:08;;;;;;;;;;;5.2;56.0;;;;;;;;;
2021/12/12 15:50:10;;;;;;;;;;;5.2;56.5;;;;;;;;;
2021/12/12 15:55:09;;;;;;;;;;;5.2;57.0;;;;;;;;;
2021/12/12 16:00:09;;;;;;;;;;;5.0;58.0;;;;;;;;;
2021/12/12 16:05:09;;;;;;;;;;;5.0;58.2;;;;;;;;;
2021/12/12 16:10:09;;;;;;;;;;;5.0;58.3;;;;;;;;;
2021/12/12 16:15:07;;;;;;;;;;;4.9;58.8;;;;;;;;;
2021/12/12 16:20:10;;;;;;;;;;;4.9;58.7;;;;;;;;;
2021/12/12 16:25:08;;;;;;;;;;;4.9;58.9;;;;;;;;;
2021/12/12 16:30:09;;;;;;;;;;;4.8;59.6;;;;;;;;;
2021/12/12 16:35:14;;;;;;;;;;;4.9;59.4;;;;;;;;;
2021/12/12 16:40:09;;;;;;;;;;;4.9;59.3;;;;;;;;;
2021/12/12 16:45:10;;;;;;;;;;;4.8;59.9;;;;;;;;;
2021/12/12 16:50:13;;;;;;;;;;;4.8;59.8;;;;;;;;;
2021/12/12 17:00:09;;;;;;;;;;;4.8;59.5;;;;;;;;;
2021/12/12 17:05:09;;;;;;;;;;;4.8;59.3;;;;;;;;;
2021/12/12 17:10:10;;;;;;;;;;;4.8;59.1;;;;;;;;;
2021/12/12 17:15:14;;;;;;;;;;;4.8;59.0;;;;;;;;;
2021/12/12 17:20:10;;;;;;;;;;;4.8;59.1;;;;;;;;;
2021/12/12 17:25:09;;;;;;;;;;;4.7;58.3;;;;;;;;;
2021/12/12 17:30:09;;;;;;;;;;;4.8;58.5;;;;;;;;;
2021/12/12 17:35:08;;;;;;;;;;;4.7;58.9;;;;;;;;;
2021/12/12 17:40:10;;;;;;;;;;;4.6;59.2;;;;;;;;;
2021/12/12 17:45:37;;;;;;;;;;;4.6;59.9;;;;;;;;;
2021/12/12 17:51:07;;;;;;;;;;;4.6;59.8;;;;;;;;;
2021/12/12 17:55:11;;;;;;;;;;;4.4;60.4;;;;;;;;;
2021/12/12 18:00:10;;;;;;;;;;;4.4;60.6;;;;;;;;;
2021/12/12 18:05:10;;;;;;;;;;;4.5;60.7;;;;;;;;;
2021/12/12 18:10:14;;;;;;;;;;;4.6;60.5;;;;;;;;;
2021/12/12 18:15:12;;;;;;;;;;;4.6;60.4;;;;;;;;;
2021/12/12 18:20:32;;;;;;;;;;;4.6;59.8;;;;;;;;;
2021/12/12 18:25:09;;;;;;;;;;;4.5;60.1;;;;;;;;;
2021/12/12 18:30:10;;;;;;;;;;;4.4;60.1;;;;;;;;;
2021/12/12 18:35:09;;;;;;;;;;;4.4;60.1;;;;;;;;;
2021/12/12 18:40:12;;;;;;;;;;;4.4;60.3;;;;;;;;;
2021/12/12 18:45:10;;;;;;;;;;;4.4;60.0;;;;;;;;;
2021/12/12 18:50:10;;;;;;;;;;;4.4;60.7;;;;;;;;;
2021/12/12 18:55:11;;;;;;;;;;;4.3;64.0;;;;;;;;;
2021/12/12 19:00:12;;;;;;;;;;;4.3;60.4;;;;;;;;;
2021/12/12 19:05:10;;;;;;;;;;;4.3;59.9;;;;;;;;;
2021/12/12 19:10:08;;;;;;;;;;;4.2;60.5;;;;;;;;;
2021/12/12 19:15:10;;;;;;;;;;;4.5;63.0;;;;;;;;;
2021/12/12 19:20:09;;;;;;;;;;;4.3;60.1;;;;;;;;;
2021/12/12 19:25:16;;;;;;;;;;;4.3;59.9;;;;;;;;;
2021/12/12 19:30:12;;;;;;;;;;;4.3;59.7;;;;;;;;;
2021/12/12 19:35:11;;;;;;;;;;;4.3;59.3;;;;;;;;;
2021/12/12 19:40:11;;;;;;;;;;;4.2;59.7;;;;;;;;;
2021/12/12 19:45:10;;;;;;;;;;;4.2;59.8;;;;;;;;;
2021/12/12 19:50:09;;;;;;;;;;;4.2;59.4;;;;;;;;;
2021/12/12 19:55:10;;;;;;;;;;;4.1;59.7;;;;;;;;;
2021/12/12 20:00:10;;;;;;;;;;;4.2;59.4;;;;;;;;;
2021/12/12 20:10:09;;;;;;;;;;;4.2;59.2;;;;;;;;;
2021/12/12 20:15:09;;;;;;;;;;;4.1;58.8;;;;;;;;;
2021/12/12 20:20:09;;;;;;;;;;;4.2;58.8;;;;;;;;;
2021/12/12 20:25:09;;;;;;;;;;;4.2;59.0;;;;;;;;;
2021/12/12 20:30:10;;;;;;;;;;;4.1;59.8;;;;;;;;;
2021/12/12 20:35:11;;;;;;;;;;;4.3;59.6;;;;;;;;;
2021/12/12 20:40:11;;;;;;;;;;;4.4;59.0;;;;;;;;;
2021/12/12 20:45:09;;;;;;;;;;;4.4;59.1;;;;;;;;;
2021/12/12 20:50:09;;;;;;;;;;;4.3;58.8;;;;;;;;;
2021/12/12 20:55:10;;;;;;;;;;;4.3;59.7;;;;;;;;;
2021/12/12 21:00:09;;;;;;;;;;;4.3;59.8;;;;;;;;;
2021/12/12 21:05:09;;;;;;;;;;;4.3;59.8;;;;;;;;;
2021/12/12 21:10:11;;;;;;;;;;;4.3;60.4;;;;;;;;;
2021/12/12 21:15:09;;;;;;;;;;;4.3;60.2;;;;;;;;;
2021/12/12 21:20:15;;;;;;;;;;;4.3;61.1;;;;;;;;;
2021/12/12 21:25:14;;;;;;;;;;;4.3;62.7;;;;;;;;;
2021/12/12 21:30:09;;;;;;;;;;;4.3;60.9;;;;;;;;;
2021/12/12 21:35:07;;;;;;;;;;;4.4;61.3;;;;;;;;;
2021/12/12 21:40:13;;;;;;;;;;;4.4;61.7;;;;;;;;;
2021/12/12 21:45:09;;;;;;;;;;;4.3;62.0;;;;;;;;;
2021/12/12 21:50:14;;;;;;;;;;;4.2;62.6;;;;;;;;;
2021/12/12 21:55:15;;;;;;;;;;;4.1;63.7;;;;;;;;;
2021/12/12 22:00:10;;;;;;;;;;;4.1;63.9;;;;;;;;;
2021/12/12 22:05:08;;;;;;;;;;;4.2;64.1;;;;;;;;;
2021/12/12 22:10:12;;;;;;;;;;;4.2;64.0;;;;;;;;;
2021/12/12 22:15:10;;;;;;;;;;;4.1;64.6;;;;;;;;;
2021/12/12 22:25:10;;;;;;;;;;;4.2;64.6;;;;;;;;;
2021/12/12 22:30:09;;;;;;;;;;;4.2;64.5;;;;;;;;;
2021/12/12 22:35:08;;;;;;;;;;;4.2;63.8;;;;;;;;;
2021/12/12 22:40:09;;;;;;;;;;;4.2;62.9;;;;;;;;;
2021/12/12 22:45:08;;;;;;;;;;;4.2;63.3;;;;;;;;;
2021/12/12 22:50:09;;;;;;;;;;;4.3;63.3;;;;;;;;;
2021/12/12 22:55:08;;;;;;;;;;;4.2;63.6;;;;;;;;;
2021/12/12 23:00:44;;;;;;;;;;;4.2;63.9;;;;;;;;;
2021/12/12 23:05:09;;;;;;;;;;;4.2;65.1;;;;;;;;;
2021/12/12 23:10:09;;;;;;;;;;;4.1;66.0;;;;;;;;;
2021/12/12 23:15:10;;;;;;;;;;;4.1;66.6;;;;;;;;;
2021/12/12 23:20:13;;;;;;;;;;;4.0;67.2;;;;;;;;;
2021/12/12 23:25:12;;;;;;;;;;;4.1;66.5;;;;;;;;;
2021/12/12 23:35:09;;;;;;;;;;;4.0;67.2;;;;;;;;;
2021/12/12 23:40:10;;;;;;;;;;;4.0;68.2;;;;;;;;;
2021/12/12 23:45:14;;;;;;;;;;;3.9;70.3;;;;;;;;;
2021/12/12 23:50:10;;;;;;;;;;;3.8;70.4;;;;;;;;;
2021/12/12 23:55:10;;;;;;;;;;;3.8;71.4;;;;;;;;;
